Omaha, Nebraska
Current Conditions -  °F | °C
As of 7:52 AM on Wednesday 22 Oct 2014 (Local Time) from KOMA Reporting Station
Scattered Clouds Scattered Clouds  
Wind Chill: 54°   Ceiling: Unl
Heat Index: 54°   Visibility: 10mi
Dew Point: 44°   Wind: 16mph
Humidity: 69%   Direction: 150°SSE
Pressure: 30.11"   Gusts: NA
Location:  41.26°N, 95.94°W
Report Text: KOMA 221252Z 15014KT 10SM SCT070 12/07 A3011 RMK AO2 SLP195 T01220067
Loading
Personal Weather Stations






























Interactive Weather Map
Tropical Storm Tracking
New forecast layout! Learn more

10-Day Weather Forecast

Advertisements
Track Severe Weather on mobile